Time;durP1;ratioP1;P1;durP2;ratioP2;P2;SDS_P1;SDS_P2;PMS_P1;PMS_P2;Temp;Humidity;BMP_temperature;BMP_pressure;BME280_temperature;BME280_humidity;BME280_pressure;Samples;Min_cycle;Max_cycle;Signal;HPM_P1;HPM_P2
2022/04/02 00:01:59;;;;;;;5.38;2.60;;;1.20;99.90;;;;;;5105992;27;20107;-83
2022/04/02 00:04:24;;;;;;;10.07;2.55;;;1.20;99.90;;;;;;5104734;28;20059;-79
2022/04/02 00:06:50;;;;;;;8.25;2.42;;;1.20;99.90;;;;;;5099731;27;20042;-82
2022/04/02 00:09:16;;;;;;;7.05;2.70;;;1.20;99.90;;;;;;5109308;27;20036;-79
2022/04/02 00:11:42;;;;;;;5.95;2.65;;;1.10;99.90;;;;;;5091821;28;20082;-82
2022/04/02 00:14:07;;;;;;;5.18;3.15;;;1.10;99.90;;;;;;5104821;27;20058;-81
2022/04/02 00:16:33;;;;;;;4.85;2.33;;;1.10;99.90;;;;;;5104064;28;20413;-78
2022/04/02 00:18:59;;;;;;;3.58;2.65;;;1.10;99.90;;;;;;5111274;27;20107;-78
2022/04/02 00:21:24;;;;;;;9.40;2.67;;;1.10;99.90;;;;;;5107675;28;20067;-77
2022/04/02 00:23:50;;;;;;;5.40;2.40;;;1.10;99.90;;;;;;5088798;27;20043;-80
2022/04/02 00:26:21;;;;;;;5.55;2.53;;;1.10;99.90;;;;;;5107793;27;20058;-84
2022/04/02 00:28:49;;;;;;;10.80;2.70;;;1.20;99.90;;;;;;5093793;28;20036;-81
2022/04/02 00:31:16;;;;;;;5.90;2.50;;;1.20;99.90;;;;;;5085820;28;20059;-80
2022/04/02 00:33:45;;;;;;;4.93;2.40;;;1.20;99.90;;;;;;5087796;28;20071;-81
2022/04/02 00:36:12;;;;;;;7.53;2.72;;;1.30;99.90;;;;;;5081470;28;20094;-79
2022/04/02 00:38:39;;;;;;;4.90;2.90;;;1.20;99.90;;;;;;5083110;28;20379;-79
2022/04/02 00:41:05;;;;;;;7.18;2.50;;;1.20;99.90;;;;;;5093047;28;20075;-77
2022/04/02 00:43:38;;;;;;;5.43;2.83;;;1.30;99.90;;;;;;5088587;28;20924;-80
2022/04/02 00:46:09;;;;;;;5.53;2.90;;;1.30;99.90;;;;;;5078237;28;20032;-80
2022/04/02 00:48:35;;;;;;;5.80;2.42;;;1.40;99.90;;;;;;5108290;28;20458;-83
2022/04/02 00:51:05;;;;;;;8.20;2.63;;;1.50;99.90;;;;;;5091823;28;20031;-80
2022/04/02 00:53:42;;;;;;;8.13;2.70;;;1.50;99.90;;;;;;5107235;28;20127;-78
2022/04/02 00:56:08;;;;;;;13.27;2.42;;;1.60;99.90;;;;;;5096184;28;20039;-81
2022/04/02 00:58:33;;;;;;;7.20;2.80;;;1.60;99.90;;;;;;5080169;28;20058;-78
2022/04/02 01:00:59;;;;;;;4.40;2.38;;;1.60;99.90;;;;;;5086516;28;20422;-80
2022/04/02 01:03:27;;;;;;;7.45;2.78;;;1.70;99.90;;;;;;5108911;28;20073;-80
2022/04/02 01:05:52;;;;;;;4.53;2.47;;;1.80;99.90;;;;;;5100570;28;20583;-77
2022/04/02 01:08:18;;;;;;;5.80;2.30;;;1.60;99.90;;;;;;5093915;28;20135;-80
2022/04/02 01:10:44;;;;;;;8.48;2.83;;;1.70;99.90;;;;;;5099500;28;20097;-79
2022/04/02 01:13:10;;;;;;;10.13;2.33;;;1.70;99.90;;;;;;5101992;28;20074;-76
2022/04/02 01:15:37;;;;;;;6.53;2.33;;;1.70;99.90;;;;;;5096646;28;20036;-78
2022/04/02 01:18:03;;;;;;;6.20;2.38;;;1.60;99.90;;;;;;5100307;28;20040;-78
2022/04/02 01:20:30;;;;;;;4.00;2.50;;;1.60;99.90;;;;;;5081537;28;20030;-78
2022/04/02 01:23:00;;;;;;;5.65;2.47;;;1.70;99.90;;;;;;5097688;28;20040;-78
2022/04/02 01:25:31;;;;;;;5.65;2.40;;;1.80;99.90;;;;;;5103009;28;20061;-80
2022/04/02 01:27:59;;;;;;;3.22;2.22;;;1.60;99.90;;;;;;5102691;28;20039;-80
2022/04/02 01:30:26;;;;;;;5.18;3.10;;;1.50;99.90;;;;;;5086743;28;20475;-78
2022/04/02 01:32:52;;;;;;;13.45;2.80;;;1.40;99.90;;;;;;5101407;28;20039;-78
2022/04/02 01:35:20;;;;;;;7.00;2.50;;;1.40;99.90;;;;;;5105476;28;20047;-78
2022/04/02 01:37:45;;;;;;;5.57;2.80;;;1.50;99.90;;;;;;5089392;28;20058;-82
2022/04/02 01:40:11;;;;;;;7.03;2.72;;;1.40;99.90;;;;;;5099499;28;20044;-82
2022/04/02 01:42:37;;;;;;;5.72;2.28;;;1.40;99.90;;;;;;5098918;28;20050;-77
2022/04/02 01:45:04;;;;;;;5.82;2.60;;;1.30;99.90;;;;;;5097662;28;20112;-78
2022/04/02 01:47:29;;;;;;;6.95;2.75;;;1.30;99.90;;;;;;5084948;28;20043;-80
2022/04/02 01:49:55;;;;;;;4.55;2.45;;;1.30;99.90;;;;;;5106246;27;20036;-79
2022/04/02 01:52:21;;;;;;;6.45;2.15;;;1.30;99.90;;;;;;5086865;28;20044;-78
2022/04/02 01:54:47;;;;;;;4.32;2.08;;;1.40;99.90;;;;;;5084403;28;20043;-83
2022/04/02 01:57:13;;;;;;;8.10;2.58;;;1.30;99.90;;;;;;5105229;28;20058;-76
2022/04/02 01:59:40;;;;;;;8.43;2.55;;;1.40;99.90;;;;;;5088094;28;20148;-80
2022/04/02 02:02:08;;;;;;;5.68;2.35;;;1.40;99.90;;;;;;5101808;28;20252;-81
2022/04/02 02:04:34;;;;;;;6.43;2.10;;;1.40;99.90;;;;;;5085717;28;20050;-78
2022/04/02 02:07:00;;;;;;;4.45;2.25;;;1.40;99.90;;;;;;5098516;28;20032;-79
2022/04/02 02:09:26;;;;;;;8.60;2.47;;;1.40;99.90;;;;;;5104896;28;20459;-77
2022/04/02 02:11:52;;;;;;;3.55;1.80;;;1.40;99.90;;;;;;5106697;27;20040;-80
2022/04/02 02:14:17;;;;;;;8.40;2.17;;;1.30;99.90;;;;;;5089075;28;20048;-81
2022/04/02 02:16:43;;;;;;;4.25;2.25;;;1.40;99.90;;;;;;5085707;28;20051;-79
2022/04/02 02:19:09;;;;;;;8.68;2.40;;;1.40;99.90;;;;;;5103119;27;20049;-82
2022/04/02 02:21:35;;;;;;;6.25;2.17;;;1.40;99.90;;;;;;5100293;27;20677;-77
2022/04/02 02:24:01;;;;;;;4.90;2.00;;;1.30;99.90;;;;;;5103286;27;20043;-80
2022/04/02 02:26:26;;;;;;;8.77;2.08;;;1.30;99.90;;;;;;5088987;28;20051;-79
2022/04/02 02:28:52;;;;;;;6.00;2.35;;;1.30;99.90;;;;;;5109281;27;20043;-83
2022/04/02 02:31:18;;;;;;;9.40;2.72;;;1.30;99.90;;;;;;5103838;27;20118;-78
2022/04/02 02:36:28;;;;;;;6.30;2.53;;;1.10;99.90;;;;;;5115493;27;20148;-77
2022/04/02 02:38:54;;;;;;;7.65;2.40;;;1.00;99.90;;;;;;5122736;27;20086;-76
2022/04/02 02:41:19;;;;;;;4.55;2.35;;;0.90;99.90;;;;;;5083287;27;20589;-79
2022/04/02 02:43:45;;;;;;;8.10;2.28;;;0.80;99.90;;;;;;5104404;27;20027;-79
2022/04/02 02:46:14;;;;;;;7.85;2.58;;;1.60;99.90;;;;;;5092792;27;20031;-78
2022/04/02 02:48:41;;;;;;;5.25;2.30;;;0.70;99.90;;;;;;5091203;27;20108;-79
2022/04/02 02:51:06;;;;;;;5.00;2.33;;;0.70;99.90;;;;;;5091675;27;20046;-78
2022/04/02 02:53:32;;;;;;;5.55;2.50;;;0.60;99.90;;;;;;5093671;27;22082;-79
2022/04/02 02:55:58;;;;;;;9.10;2.80;;;0.60;99.90;;;;;;5112468;27;20035;-79
2022/04/02 02:58:23;;;;;;;6.18;2.53;;;0.60;99.90;;;;;;5105469;27;20086;-78
2022/04/02 03:00:49;;;;;;;6.18;2.70;;;0.60;99.90;;;;;;5091313;27;20050;-80
2022/04/02 03:03:15;;;;;;;5.65;2.72;;;0.50;99.90;;;;;;5092148;27;20151;-82
2022/04/02 03:05:40;;;;;;;5.90;2.92;;;0.50;99.90;;;;;;5113853;27;20082;-77
2022/04/02 03:08:06;;;;;;;10.45;3.15;;;0.50;99.90;;;;;;5121593;27;20038;-80
2022/04/02 03:10:32;;;;;;;9.95;3.08;;;0.50;99.90;;;;;;5104752;27;20168;-80
2022/04/02 03:12:59;;;;;;;5.65;2.47;;;0.40;99.90;;;;;;5113272;27;20198;-77
2022/04/02 03:15:25;;;;;;;4.10;2.55;;;0.40;99.90;;;;;;5107693;27;21974;-80
2022/04/02 03:17:55;;;;;;;4.90;2.50;;;0.30;99.90;;;;;;5089207;27;20038;-80
2022/04/02 03:20:21;;;;;;;6.80;2.70;;;0.30;99.90;;;;;;5105022;27;20035;-84
2022/04/02 03:22:49;;;;;;;9.80;2.83;;;0.20;99.90;;;;;;5104760;27;20132;-79
2022/04/02 03:25:17;;;;;;;8.15;2.90;;;0.40;99.90;;;;;;5122324;27;20035;-84
2022/04/02 03:27:44;;;;;;;10.82;2.92;;;0.20;99.90;;;;;;5103223;27;20042;-78
2022/04/02 03:30:11;;;;;;;6.82;2.90;;;0.60;99.90;;;;;;5091674;27;20047;-81
2022/04/02 03:32:38;;;;;;;4.97;2.40;;;0.10;99.90;;;;;;5103389;27;20046;-80
2022/04/02 03:35:05;;;;;;;5.88;2.67;;;0.10;99.90;;;;;;5105849;27;20051;-81
2022/04/02 03:37:31;;;;;;;8.02;2.58;;;0.10;99.90;;;;;;5120373;27;20126;-79
2022/04/02 03:39:57;;;;;;;4.70;2.50;;;0.10;99.90;;;;;;5089551;27;20134;-80
2022/04/02 03:42:23;;;;;;;6.10;2.10;;;0.10;99.90;;;;;;5092912;27;21590;-77
2022/04/02 03:44:49;;;;;;;6.63;2.35;;;0.10;99.90;;;;;;5125605;27;20129;-82
2022/04/02 03:47:15;;;;;;;9.50;1.92;;;0.20;99.90;;;;;;5086030;27;20235;-82
2022/04/02 03:49:47;;;;;;;5.88;1.90;;;0.30;99.90;;;;;;5106961;27;20372;-80
2022/04/02 03:52:13;;;;;;;8.77;1.70;;;0.40;99.90;;;;;;5101646;27;20079;-80
2022/04/02 03:54:39;;;;;;;5.45;1.40;;;0.50;99.90;;;;;;5117342;27;20063;-81
2022/04/02 03:57:06;;;;;;;6.63;1.58;;;0.60;99.90;;;;;;5100145;27;20058;-78
2022/04/02 03:59:33;;;;;;;3.30;1.58;;;0.60;99.90;;;;;;5099197;27;20035;-80
2022/04/02 04:01:59;;;;;;;6.07;1.52;;;0.70;99.90;;;;;;5100309;27;20035;-78
2022/04/02 04:04:25;;;;;;;5.45;1.40;;;0.70;99.90;;;;;;5103255;27;20060;-78
2022/04/02 04:06:52;;;;;;;6.50;1.45;;;0.70;99.90;;;;;;5084320;27;20508;-83
2022/04/02 04:09:18;;;;;;;4.55;1.27;;;0.70;99.90;;;;;;5104582;27;20041;-80
2022/04/02 04:11:44;;;;;;;5.40;1.73;;;0.70;99.90;;;;;;5087807;27;20068;-80
2022/04/02 04:14:09;;;;;;;3.30;1.50;;;0.80;99.90;;;;;;5105008;27;20035;-81
2022/04/02 04:16:35;;;;;;;9.88;1.80;;;0.80;99.90;;;;;;5105527;27;20484;-79
2022/04/02 04:19:02;;;;;;;7.20;1.70;;;1.10;99.90;;;;;;5105354;27;20042;-78
2022/04/02 04:21:28;;;;;;;4.53;1.58;;;0.80;99.90;;;;;;5084277;27;20130;-79
2022/04/02 04:23:53;;;;;;;7.95;1.52;;;0.80;99.90;;;;;;5103800;27;20154;-77
2022/04/02 04:26:19;;;;;;;4.60;1.50;;;0.80;99.90;;;;;;5126789;27;20047;-77
2022/04/02 04:28:45;;;;;;;2.53;1.42;;;0.80;99.90;;;;;;5097792;27;20039;-81
2022/04/02 04:31:11;;;;;;;16.15;1.50;;;0.80;99.90;;;;;;5108805;27;20066;-80
2022/04/02 04:33:37;;;;;;;9.75;1.90;;;0.90;99.90;;;;;;5091152;27;20089;-79
2022/04/02 04:36:03;;;;;;;6.93;1.40;;;0.90;99.90;;;;;;5108753;28;20043;-77
2022/04/02 04:38:30;;;;;;;5.25;1.83;;;0.80;99.90;;;;;;5107765;28;20146;-79
2022/04/02 04:40:56;;;;;;;7.93;1.98;;;0.90;99.90;;;;;;5090479;28;20145;-80
2022/04/02 04:43:22;;;;;;;5.60;1.88;;;0.90;99.90;;;;;;5087204;27;20414;-79
2022/04/02 04:45:51;;;;;;;6.57;2.00;;;0.90;99.90;;;;;;5111113;28;20103;-80
2022/04/02 04:48:16;;;;;;;2.70;1.67;;;1.00;99.90;;;;;;5107160;28;20038;-82
2022/04/02 04:50:42;;;;;;;4.55;1.67;;;1.30;99.90;;;;;;5104356;28;20043;-80
2022/04/02 04:53:09;;;;;;;4.28;1.85;;;1.00;99.90;;;;;;5109497;28;20039;-81
2022/04/02 04:55:35;;;;;;;6.25;2.20;;;1.10;99.90;;;;;;5108078;28;20101;-79
2022/04/02 04:58:02;;;;;;;3.65;1.92;;;1.10;99.90;;;;;;5127832;27;20067;-80
2022/04/02 05:00:28;;;;;;;6.95;2.35;;;1.30;99.90;;;;;;5117309;27;20030;-79
2022/04/02 05:02:53;;;;;;;7.65;2.90;;;1.40;99.90;;;;;;5116387;27;20035;-78
2022/04/02 05:05:19;;;;;;;4.47;2.50;;;1.40;99.90;;;;;;5112997;27;20058;-81
2022/04/02 05:07:45;;;;;;;4.22;2.30;;;1.40;99.90;;;;;;5091125;27;20054;-79
2022/04/02 05:10:12;;;;;;;6.25;2.65;;;1.40;99.90;;;;;;5107017;27;20046;-77
2022/04/02 05:12:39;;;;;;;3.35;2.17;;;1.40;99.90;;;;;;5110053;27;20054;-78
2022/04/02 05:15:08;;;;;;;5.47;2.78;;;1.30;99.90;;;;;;5115673;27;20492;-77
2022/04/02 05:17:34;;;;;;;4.20;2.50;;;1.30;99.90;;;;;;5116452;27;20066;-78
2022/04/02 05:20:00;;;;;;;7.35;2.35;;;1.30;99.90;;;;;;5118663;27;20039;-77
2022/04/02 05:22:26;;;;;;;7.57;2.60;;;1.30;99.90;;;;;;5117785;27;20543;-80
2022/04/02 05:24:52;;;;;;;7.60;2.45;;;1.40;99.90;;;;;;5116576;27;20027;-80
2022/04/02 05:27:17;;;;;;;4.05;2.28;;;1.40;99.90;;;;;;5105498;27;20071;-82
2022/04/02 05:29:43;;;;;;;8.82;2.38;;;1.40;99.90;;;;;;5107439;27;20161;-79
2022/04/02 05:32:10;;;;;;;6.88;2.47;;;1.50;99.90;;;;;;5110439;27;20232;-78
2022/04/02 05:34:35;;;;;;;4.80;2.20;;;1.50;99.90;;;;;;5112962;27;20129;-77
2022/04/02 05:37:01;;;;;;;8.15;2.30;;;1.40;99.90;;;;;;5096780;27;20624;-76
2022/04/02 05:39:27;;;;;;;5.70;2.58;;;1.50;99.90;;;;;;5104123;27;20088;-80
2022/04/02 05:41:53;;;;;;;7.72;2.60;;;1.50;99.90;;;;;;5087230;27;20166;-78
2022/04/02 05:44:19;;;;;;;5.85;2.35;;;1.40;99.90;;;;;;5104493;27;20485;-79
2022/04/02 05:46:44;;;;;;;7.95;3.17;;;1.50;99.90;;;;;;5106719;27;20036;-79
2022/04/02 05:49:11;;;;;;;3.90;2.10;;;1.60;99.90;;;;;;5097717;27;20058;-77
2022/04/02 05:51:38;;;;;;;5.53;2.38;;;1.70;99.90;;;;;;5093334;27;20113;-81
2022/04/02 05:54:04;;;;;;;7.00;2.47;;;1.80;99.90;;;;;;5111092;27;20134;-78
2022/04/02 05:56:30;;;;;;;7.07;2.30;;;1.90;99.90;;;;;;5108569;27;20116;-78
2022/04/02 05:58:56;;;;;;;4.85;2.35;;;2.00;99.90;;;;;;5124006;27;20038;-79
2022/04/02 06:01:22;;;;;;;6.68;2.05;;;1.90;99.90;;;;;;5092882;27;20100;-77
2022/04/02 06:03:48;;;;;;;5.22;1.98;;;2.00;99.90;;;;;;5092340;27;20589;-81
2022/04/02 06:06:14;;;;;;;8.32;2.05;;;2.00;99.90;;;;;;5091814;27;20047;-81
2022/04/02 06:08:39;;;;;;;5.57;1.80;;;2.00;99.90;;;;;;5114551;27;20494;-75
2022/04/02 06:11:06;;;;;;;9.70;1.90;;;2.10;99.90;;;;;;5084987;27;20051;-79
2022/04/02 06:13:32;;;;;;;3.88;1.60;;;2.10;99.90;;;;;;5097019;27;20047;-80
2022/04/02 06:15:58;;;;;;;4.80;2.50;;;2.10;99.90;;;;;;5115402;27;20073;-81
2022/04/02 06:18:23;;;;;;;9.90;2.42;;;2.00;99.90;;;;;;5095512;27;20062;-78
2022/04/02 06:20:49;;;;;;;4.05;2.10;;;2.40;99.90;;;;;;5116609;27;20789;-79
2022/04/02 06:23:16;;;;;;;4.97;2.53;;;2.00;99.90;;;;;;5096908;27;21775;-82
2022/04/02 06:25:42;;;;;;;4.78;2.08;;;2.00;99.90;;;;;;5095117;27;20482;-78
2022/04/02 06:28:09;;;;;;;4.05;2.22;;;2.00;99.90;;;;;;5115101;27;20060;-80
2022/04/02 06:30:35;;;;;;;6.57;2.33;;;2.00;99.90;;;;;;5103968;27;20115;-75
2022/04/02 06:33:01;;;;;;;2.13;1.60;;;2.00;99.90;;;;;;5093696;27;20474;-79
2022/04/02 06:35:27;;;;;;;7.85;2.20;;;2.50;99.90;;;;;;5129902;27;20073;-79
2022/04/02 06:37:54;;;;;;;6.80;2.28;;;2.40;99.90;;;;;;5106489;27;20039;-82
2022/04/02 06:40:23;;;;;;;7.80;2.45;;;2.30;99.90;;;;;;5092758;27;20444;-84
2022/04/02 06:42:49;;;;;;;6.72;2.55;;;2.30;99.90;;;;;;5107910;27;20031;-80
2022/04/02 06:45:15;;;;;;;6.20;2.00;;;2.30;99.90;;;;;;5112734;27;20034;-77
2022/04/02 06:47:41;;;;;;;4.95;2.22;;;2.20;99.90;;;;;;5094065;27;20385;-78
2022/04/02 06:50:10;;;;;;;3.90;2.10;;;2.20;99.90;;;;;;5097153;27;20050;-77
2022/04/02 06:52:37;;;;;;;4.55;2.00;;;2.30;99.90;;;;;;5093187;27;20045;-79
2022/04/02 06:55:03;;;;;;;12.57;2.10;;;2.40;99.90;;;;;;5091631;27;20431;-78
2022/04/02 06:57:29;;;;;;;4.18;1.60;;;2.40;99.90;;;;;;5112626;27;20043;-78
2022/04/02 06:59:55;;;;;;;4.25;1.90;;;2.50;99.90;;;;;;5113992;27;20522;-78
2022/04/02 07:02:21;;;;;;;3.92;1.90;;;2.60;99.90;;;;;;5117064;27;20145;-77
2022/04/02 07:04:47;;;;;;;3.75;2.10;;;2.60;99.90;;;;;;5108012;27;21658;-79
2022/04/02 07:07:13;;;;;;;9.25;2.30;;;2.60;99.90;;;;;;5089426;27;20050;-78
2022/04/02 07:09:39;;;;;;;4.22;1.92;;;2.60;99.90;;;;;;5104437;27;20950;-78
2022/04/02 07:12:06;;;;;;;4.38;1.98;;;2.50;99.90;;;;;;5105503;27;20043;-80
2022/04/02 07:14:34;;;;;;;5.03;2.00;;;2.50;99.90;;;;;;5110329;27;20134;-76
2022/04/02 07:16:59;;;;;;;3.72;1.75;;;3.30;99.90;;;;;;5105503;27;20039;-76
2022/04/02 07:19:26;;;;;;;6.75;1.80;;;2.30;99.90;;;;;;5103661;27;20039;-76
2022/04/02 07:21:53;;;;;;;6.13;1.58;;;2.30;99.90;;;;;;5110916;27;20046;-75
2022/04/02 07:24:20;;;;;;;5.88;1.90;;;2.20;99.90;;;;;;5092443;27;20031;-76
2022/04/02 07:26:47;;;;;;;5.80;1.90;;;2.10;99.90;;;;;;5125293;27;20039;-77
2022/04/02 07:29:14;;;;;;;3.08;1.30;;;2.00;99.90;;;;;;5107099;27;20038;-75
2022/04/02 07:31:41;;;;;;;2.53;1.50;;;2.00;99.90;;;;;;5106959;27;20035;-78
2022/04/02 07:34:07;;;;;;;3.33;1.13;;;2.00;99.90;;;;;;5107517;27;20043;-79
2022/04/02 07:36:57;;;;;;;1.52;1.00;;;2.00;99.90;;;;;;5098786;27;20051;-77
2022/04/02 07:39:32;;;;;;;3.08;1.13;;;1.90;99.90;;;;;;5083813;28;20115;-78
2022/04/02 07:42:17;;;;;;;;;;;2.00;99.90;;;;;;5097386;28;20112;-82
2022/04/02 07:44:52;;;;;;;4.40;1.27;;;2.20;99.90;;;;;;5100687;28;19920;-78
2022/04/02 07:47:23;;;;;;;7.13;1.60;;;2.30;99.90;;;;;;5102772;27;20040;-79
2022/04/02 07:49:53;;;;;;;5.65;1.48;;;2.30;99.90;;;;;;5101946;28;20061;-79
2022/04/02 07:52:22;;;;;;;2.35;1.38;;;2.10;99.90;;;;;;5078929;28;20048;-78
2022/04/02 07:54:56;;;;;;;5.53;1.73;;;2.20;99.90;;;;;;5065056;28;20060;-76
2022/04/02 07:57:24;;;;;;;4.32;1.48;;;2.20;99.90;;;;;;5103171;27;20058;-77
2022/04/02 07:59:59;;;;;;;5.18;1.70;;;2.40;99.90;;;;;;5107451;27;20043;-80
2022/04/02 08:02:37;;;;;;;4.05;1.60;;;2.50;99.90;;;;;;5087584;28;20044;-79
2022/04/02 08:05:10;;;;;;;5.82;1.70;;;2.70;99.90;;;;;;5068395;28;20040;-76
2022/04/02 08:07:37;;;;;;;4.30;1.50;;;2.90;99.90;;;;;;5103173;28;20059;-78
2022/04/02 08:10:10;;;;;;;1.75;1.15;;;3.10;99.90;;;;;;5104084;27;20040;-80
2022/04/02 08:12:40;;;;;;;2.75;1.30;;;3.30;99.90;;;;;;5104867;28;20062;-81
2022/04/02 08:15:20;;;;;;;2.13;1.15;;;3.40;99.90;;;;;;5102934;28;20047;-81
2022/04/02 08:17:48;;;;;;;4.55;1.00;;;3.50;99.90;;;;;;5083404;28;20944;-81
2022/04/02 08:20:17;;;;;;;3.22;1.50;;;3.70;99.90;;;;;;5100624;28;20464;-79
2022/04/02 08:22:44;;;;;;;2.67;1.25;;;3.70;99.90;;;;;;5071023;27;20040;-81
2022/04/02 08:25:11;;;;;;;4.03;1.00;;;3.80;99.90;;;;;;5081951;28;20038;-79
2022/04/02 08:27:48;;;;;;;2.47;1.10;;;3.90;99.90;;;;;;5102515;27;20039;-79
2022/04/02 08:30:17;;;;;;;4.82;1.30;;;4.00;99.90;;;;;;5104381;28;20035;-80
2022/04/02 08:32:58;;;;;;;3.42;1.67;;;4.10;99.90;;;;;;5102313;27;20043;-80
2022/04/02 08:35:41;;;;;;;3.65;1.20;;;4.30;99.90;;;;;;5084056;28;20131;-86
2022/04/02 08:38:41;;;;;;;5.88;1.65;;;4.10;99.90;;;;;;5100128;28;20067;-84
2022/04/02 08:41:35;;;;;;;1.92;1.23;;;4.00;99.90;;;;;;5104290;28;20471;-83
2022/04/02 08:44:06;;;;;;;3.53;1.23;;;4.00;99.90;;;;;;5105015;28;21179;-82
2022/04/02 08:47:03;;;;;;;5.68;1.33;;;4.00;99.90;;;;;;5089878;28;20047;-86
2022/04/02 08:49:50;;;;;;;3.92;1.17;;;4.20;99.90;;;;;;5105962;28;20043;-80
2022/04/02 08:52:49;;;;;;;4.20;1.20;;;4.20;99.90;;;;;;5105565;28;20032;-84
2022/04/02 08:55:16;;;;;;;6.70;1.50;;;4.30;99.90;;;;;;5107396;28;20047;-78
2022/04/02 08:57:42;;;;;;;4.25;1.30;;;4.70;99.90;;;;;;5085392;28;20032;-77
2022/04/02 09:00:16;;;;;;;1.63;0.90;;;4.50;99.90;;;;;;5105308;28;21606;-79
2022/04/02 09:02:49;;;;;;;5.85;1.33;;;4.70;99.90;;;;;;5103543;28;20035;-82
2022/04/02 09:05:17;;;;;;;3.97;1.05;;;4.90;99.90;;;;;;5102784;28;20104;-75
2022/04/02 09:08:15;;;;;;;3.10;0.98;;;5.10;99.90;;;;;;5106352;28;20047;-80
2022/04/02 09:11:15;;;;;;;6.38;0.90;;;4.90;99.90;;;;;;5075153;28;20042;-78
2022/04/02 09:14:26;;;;;;;5.22;1.10;;;4.80;99.90;;;;;;5083837;28;20047;-82
2022/04/02 09:25:27;;;;;;;3.38;1.10;;;4.60;99.90;;;;;;4934013;29;20047;-90
2022/04/02 09:29:03;;;;;;;3.42;0.90;;;4.50;99.90;;;;;;4919148;29;20044;-91
2022/04/02 09:32:01;;;;;;;4.25;0.90;;;4.80;99.90;;;;;;4930128;29;20051;-82
2022/04/02 09:35:10;;;;;;;4.97;1.25;;;5.30;99.90;;;;;;4912571;29;20082;-83
2022/04/02 09:37:54;;;;;;;5.80;1.02;;;5.40;99.90;;;;;;4876364;29;20127;-83
2022/04/02 09:40:32;;;;;;;4.22;1.30;;;5.40;99.90;;;;;;4888794;29;20438;-81
2022/04/02 09:43:07;;;;;;;2.67;1.05;;;6.20;99.90;;;;;;4875944;29;20049;-82
2022/04/02 09:45:48;;;;;;;3.30;1.30;;;5.50;99.90;;;;;;4889378;29;20072;-82
2022/04/02 09:48:18;;;;;;;1.65;0.88;;;5.30;99.90;;;;;;4894286;29;20127;-81
2022/04/02 09:50:45;;;;;;;3.60;1.30;;;5.30;99.90;;;;;;4892879;29;20064;-82
2022/04/02 09:53:16;;;;;;;4.28;1.23;;;5.30;99.90;;;;;;4891990;29;20057;-82
2022/04/02 09:56:06;;;;;;;7.10;1.30;;;6.10;99.90;;;;;;4877606;29;20055;-81
2022/04/02 09:58:44;;;;;;;6.28;1.15;;;5.50;99.90;;;;;;4947994;29;20043;-82
2022/04/02 10:01:19;;;;;;;4.30;1.50;;;6.00;99.90;;;;;;4959603;28;20050;-81
2022/04/02 10:04:01;;;;;;;1.42;0.73;;;5.90;99.90;;;;;;5004784;28;20449;-81
2022/04/02 10:06:35;;;;;;;2.58;1.00;;;5.80;99.90;;;;;;4988659;28;20428;-79
2022/04/02 10:09:09;;;;;;;2.70;1.05;;;6.00;99.90;;;;;;4996329;28;20041;-77
2022/04/02 10:11:48;;;;;;;6.40;1.15;;;6.00;99.90;;;;;;5001351;28;20042;-79
2022/04/02 10:14:23;;;;;;;3.97;1.17;;;5.90;99.90;;;;;;5103808;27;20123;-79
2022/04/02 10:16:56;;;;;;;2.50;1.00;;;6.20;99.90;;;;;;5093000;28;20078;-79
2022/04/02 10:19:33;;;;;;;4.88;1.20;;;5.90;99.90;;;;;;5090480;28;20044;-80
2022/04/02 10:22:08;;;;;;;3.90;1.02;;;5.90;99.90;;;;;;5108205;27;20417;-79
2022/04/02 10:24:38;;;;;;;5.13;1.40;;;6.80;99.90;;;;;;5102590;27;20035;-81
2022/04/02 10:27:05;;;;;;;4.38;1.55;;;6.10;99.90;;;;;;5102323;27;20119;-80
2022/04/02 10:29:52;;;;;;;7.57;1.00;;;6.60;99.90;;;;;;5101420;28;20060;-77
2022/04/02 10:32:24;;;;;;;2.53;0.82;;;6.60;99.90;;;;;;5113590;27;20047;-79
2022/04/02 10:34:59;;;;;;;4.07;1.30;;;6.30;99.90;;;;;;5103505;27;20036;-78
2022/04/02 10:37:38;;;;;;;1.48;0.80;;;6.50;99.90;;;;;;5084322;28;20355;-79
2022/04/02 10:40:06;;;;;;;7.30;1.13;;;6.10;99.90;;;;;;5107278;28;20491;-79
2022/04/02 10:42:38;;;;;;;3.55;1.08;;;5.80;99.90;;;;;;5086466;28;20050;-78
2022/04/02 10:45:10;;;;;;;1.73;0.90;;;5.90;99.90;;;;;;5087975;28;20035;-79
2022/04/02 10:47:46;;;;;;;3.88;0.90;;;6.30;99.90;;;;;;5085820;28;20167;-82
2022/04/02 10:50:15;;;;;;;3.22;1.15;;;6.40;99.90;;;;;;5108886;27;20421;-82
2022/04/02 10:52:43;;;;;;;2.92;1.27;;;6.10;99.90;;;;;;5103361;28;20039;-87
2022/04/02 10:55:12;;;;;;;2.88;0.90;;;5.90;99.90;;;;;;5103375;28;20424;-85
2022/04/02 10:57:43;;;;;;;2.17;1.10;;;6.00;99.90;;;;;;5101018;28;20040;-82
2022/04/02 11:00:25;;;;;;;;;;;;;;;;;;;;;
2022/04/02 11:03:02;;;;;;;1.92;0.90;;;6.10;99.90;;;;;;5106942;28;20091;-86
2022/04/02 11:05:37;;;;;;;5.18;1.20;;;6.50;99.90;;;;;;5086707;28;20164;-84
2022/04/02 11:08:12;;;;;;;4.07;1.30;;;6.70;99.90;;;;;;5085596;28;20128;-84
2022/04/02 11:10:38;;;;;;;1.85;1.00;;;6.80;99.90;;;;;;5107975;28;20100;-81
2022/04/02 11:13:07;;;;;;;7.10;1.20;;;6.30;99.90;;;;;;5103509;28;20039;-82
2022/04/02 11:15:40;;;;;;;4.25;1.30;;;6.80;99.90;;;;;;5105928;27;20520;-83
2022/04/02 11:18:16;;;;;;;6.65;1.20;;;6.60;99.40;;;;;;5103310;27;20067;-79
2022/04/02 11:20:42;;;;;;;6.95;1.00;;;6.60;99.30;;;;;;5086030;28;20122;-81
2022/04/02 11:23:44;;;;;;;2.15;1.17;;;7.00;99.70;;;;;;5102614;28;20070;-83
2022/04/02 11:26:18;;;;;;;4.95;1.40;;;7.00;99.90;;;;;;5087135;28;20485;-88
2022/04/02 11:28:45;;;;;;;1.52;0.90;;;6.70;98.90;;;;;;5087020;28;20316;-78
2022/04/02 11:31:13;;;;;;;3.17;1.20;;;6.70;98.60;;;;;;5092053;28;20052;-80
2022/04/02 11:33:52;;;;;;;2.92;1.40;;;7.80;99.80;;;;;;5083946;28;20095;-81
2022/04/02 11:36:27;;;;;;;2.88;0.98;;;8.50;99.30;;;;;;5104808;27;20044;-81
2022/04/02 11:39:01;;;;;;;4.15;1.15;;;7.20;96.50;;;;;;5089622;28;20052;-85
2022/04/02 11:41:42;;;;;;;3.75;1.20;;;7.40;96.00;;;;;;5103580;27;20431;-78
2022/04/02 11:44:10;;;;;;;3.45;1.30;;;6.70;97.20;;;;;;5085812;28;20362;-79
2022/04/02 11:46:58;;;;;;;2.25;1.00;;;6.70;99.20;;;;;;5103112;28;20057;-81
2022/04/02 11:49:29;;;;;;;1.58;1.05;;;6.70;98.70;;;;;;5082970;28;20040;-79
2022/04/02 11:52:05;;;;;;;3.70;1.00;;;6.60;97.70;;;;;;5080714;28;20050;-78
2022/04/02 11:54:31;;;;;;;3.05;1.20;;;6.70;98.80;;;;;;5121565;27;20409;-78
2022/04/02 11:57:09;;;;;;;6.57;1.30;;;6.80;98.80;;;;;;5101218;28;20101;-79
2022/04/02 11:59:36;;;;;;;2.55;1.10;;;6.90;98.90;;;;;;5080249;28;20039;-81
2022/04/02 12:02:03;;;;;;;2.03;0.95;;;6.90;98.00;;;;;;5100938;28;20118;-80
2022/04/02 12:04:29;;;;;;;3.00;1.10;;;6.80;97.90;;;;;;5100939;28;20062;-78
2022/04/02 12:07:05;;;;;;;1.90;1.00;;;7.00;99.30;;;;;;5083842;28;20574;-79
2022/04/02 12:09:32;;;;;;;2.78;1.20;;;7.10;97.00;;;;;;5087842;28;20050;-78
2022/04/02 12:12:05;;;;;;;2.58;1.27;;;7.00;96.40;;;;;;5100966;28;20035;-77
2022/04/02 12:14:39;;;;;;;2.53;1.10;;;6.90;98.30;;;;;;5101261;28;20483;-78
2022/04/02 12:17:09;;;;;;;4.93;1.40;;;6.70;98.50;;;;;;5101134;28;20382;-78
2022/04/02 12:19:55;;;;;;;1.55;0.90;;;6.70;97.40;;;;;;5085103;28;20477;-79
2022/04/02 12:22:30;;;;;;;2.70;1.02;;;6.40;97.80;;;;;;5085176;28;20406;-80
2022/04/02 12:25:04;;;;;;;5.53;1.48;;;6.70;98.40;;;;;;5090472;28;20032;-77
2022/04/02 12:27:37;;;;;;;3.55;0.90;;;6.80;99.50;;;;;;5092519;28;20434;-79
2022/04/02 12:30:23;;;;;;;2.70;1.17;;;6.10;98.30;;;;;;5097589;28;20145;-81
2022/04/02 12:32:49;;;;;;;4.00;0.90;;;6.10;98.90;;;;;;5097991;28;20563;-78
2022/04/02 12:35:26;;;;;;;1.00;0.85;;;6.30;99.60;;;;;;5105622;28;20051;-79
2022/04/02 12:37:54;;;;;;;3.78;1.25;;;6.30;99.90;;;;;;5086724;28;20055;-78
2022/04/02 12:40:42;;;;;;;2.22;0.93;;;6.20;99.40;;;;;;5094603;28;20245;-82
2022/04/02 12:43:12;;;;;;;2.08;1.00;;;6.30;99.90;;;;;;5113486;27;20138;-80
2022/04/02 12:45:38;;;;;;;3.13;0.98;;;6.40;99.30;;;;;;5088478;28;20503;-80
2022/04/02 12:48:09;;;;;;;3.40;0.90;;;6.00;99.70;;;;;;5092307;28;20046;-80
2022/04/02 12:50:37;;;;;;;2.63;1.20;;;6.00;99.90;;;;;;5091129;28;20047;-81
2022/04/02 12:53:03;;;;;;;5.20;0.80;;;6.10;98.90;;;;;;5091203;28;20048;-81
2022/04/02 12:55:32;;;;;;;4.60;1.20;;;6.60;99.70;;;;;;5108705;28;20047;-82
2022/04/02 12:58:10;;;;;;;3.15;1.05;;;6.60;99.90;;;;;;5108404;28;20174;-81
2022/04/02 13:00:43;;;;;;;3.90;0.90;;;6.60;99.30;;;;;;5109209;28;20040;-81
2022/04/02 13:03:10;;;;;;;3.95;1.00;;;6.50;99.00;;;;;;5091810;28;20046;-80
2022/04/02 13:05:48;;;;;;;2.67;0.88;;;6.50;98.50;;;;;;5108234;28;20043;-80
2022/04/02 13:08:17;;;;;;;2.65;1.15;;;6.70;97.70;;;;;;5087120;28;20035;-81
2022/04/02 13:10:46;;;;;;;14.63;1.55;;;7.00;97.90;;;;;;5108271;28;20355;-80
2022/04/02 13:13:15;;;;;;;3.03;1.30;;;6.50;96.00;;;;;;5108130;28;20429;-82
2022/04/02 13:15:51;;;;;;;4.65;1.30;;;6.60;97.70;;;;;;5091567;28;20059;-80
2022/04/02 13:21:08;;;;;;;4.13;0.90;;;7.70;95.50;;;;;;5109849;28;20389;-80
2022/04/02 13:24:03;;;;;;;2.15;1.20;;;8.00;95.30;;;;;;5095354;28;20046;-82
2022/04/02 13:26:36;;;;;;;2.80;1.10;;;8.30;94.40;;;;;;5066102;28;20123;-82
2022/04/02 13:29:46;;;;;;;3.72;0.88;;;8.00;92.10;;;;;;5094344;28;20086;-80